메인 페이지
METAR-TAF:

METAR-TAF

공항 :

프린세스 줄리아나 국제공항

신트마르턴, 네덜란드령 안틸레스

위도: 18-03N, 경도: 063-07W, 고도: 4m

현재 날씨관측

예보는 1 시간 7분 전, 05:00시(UTC)에 발표되었습니다.
14kt북북동풍과 동남동풍을 오가는
온도 28°C
습도 74%
기압 1019 hPa
시정 10km 이상
고도 2000ft 상공 구름 조금

METAR: TNCM 170500Z 08014KT 030V110 9999 FEW020 28/23 Q1019 A3010

시각: 02:07 (06:07 UTC)

예보

예보는 27분 전, 05:40시(UTC)에 발표되었습니다.
예보 대상 시간: 17일 06시부터 18일 06시까지 (UTC)
12kt
시정: 10km
고도 2000ft 상공 구름 보통

TAF: TNCM 170540Z 1706/1806 09012KT P6SM SCT020

4,000개 이상의 공항 관측 자료 및 예보 (METAR 및 TAF 보고).

지도상에서 검색 가능한 기상관측소가 노란 점과 빨간 점으로 표시되어 있습니다.

기상관측소 명을 보려면 표시 위로 마우스를 이동하세요.

날씨 관측과 예보를 보려면 클릭하세요.

지도 변경 : 확대하려면 엑스 표시가 있는 녹색 버튼, 축소하려면 빼기 표시가 있는 녹색 버튼, 다음 페이지의 지도를 보려면 녹색 화살표를 클릭하세요.


METAR-TAF: